createdAt,value
2018-07-06T00:01:39.274Z,13.60
2018-07-06T00:04:19.551Z,13.50
2018-07-06T00:06:59.374Z,13.40
2018-07-06T00:09:39.179Z,13.40
2018-07-06T00:12:18.933Z,13.30
2018-07-06T00:14:58.503Z,13.30
2018-07-06T00:17:38.158Z,13.30
2018-07-06T00:20:17.817Z,13.40
2018-07-06T00:22:57.477Z,13.50
2018-07-06T00:25:36.951Z,13.50
2018-07-06T00:28:16.652Z,13.60
2018-07-06T00:30:56.190Z,13.80
2018-07-06T00:33:35.991Z,13.90
2018-07-06T00:36:15.742Z,14.00
2018-07-06T00:38:55.342Z,14.10
2018-07-06T00:41:35.062Z,14.20
2018-07-06T00:44:14.480Z,14.30
2018-07-06T00:46:54.107Z,14.40
2018-07-06T00:49:33.775Z,14.50
2018-07-06T00:52:13.543Z,14.50
2018-07-06T00:54:53.285Z,14.50
2018-07-06T00:57:32.864Z,14.60
2018-07-06T01:00:12.574Z,14.60
2018-07-06T01:02:52.616Z,14.60
2018-07-06T01:05:32.315Z,14.60
2018-07-06T01:08:11.859Z,14.70
2018-07-06T01:10:51.371Z,14.70
2018-07-06T01:13:31.131Z,14.70
2018-07-06T01:16:10.843Z,14.80
2018-07-06T01:21:24.035Z,14.80
2018-07-06T01:24:03.670Z,14.80
2018-07-06T01:26:43.355Z,14.90
2018-07-06T01:29:22.950Z,14.90
2018-07-06T01:32:02.580Z,15.00
2018-07-06T01:34:42.425Z,15.10
2018-07-06T01:37:22.027Z,15.10
2018-07-06T01:40:01.719Z,15.10
2018-07-06T01:42:41.385Z,15.20
2018-07-06T01:45:21.133Z,15.20
2018-07-06T01:48:00.832Z,15.20
2018-07-06T01:50:40.374Z,15.20
2018-07-06T01:53:20.072Z,15.20
2018-07-06T01:55:59.572Z,15.20
2018-07-06T01:58:39.317Z,15.20
2018-07-06T02:01:19.097Z,15.30
2018-07-06T02:03:58.717Z,15.30
2018-07-06T02:06:38.380Z,15.30
2018-07-06T02:09:18.006Z,15.40
2018-07-06T02:11:57.745Z,15.40
2018-07-06T02:14:37.318Z,15.40
2018-07-06T02:17:17.605Z,15.40
2018-07-06T02:19:57.242Z,15.50
2018-07-06T02:22:36.874Z,15.50
2018-07-06T02:25:16.617Z,15.50
2018-07-06T02:27:56.293Z,15.50
2018-07-06T02:30:36.006Z,15.50
2018-07-06T02:33:15.714Z,15.50
2018-07-06T02:35:55.324Z,15.50
2018-07-06T02:38:34.918Z,15.40
2018-07-06T02:41:14.676Z,15.50
2018-07-06T02:43:54.243Z,15.50
2018-07-06T02:46:33.870Z,15.40
2018-07-06T02:49:13.469Z,15.40
2018-07-06T02:51:53.181Z,15.40
2018-07-06T02:54:32.799Z,15.50
2018-07-06T02:57:12.235Z,15.40
2018-07-06T02:59:51.866Z,15.50
2018-07-06T03:02:31.405Z,15.50
2018-07-06T03:05:11.198Z,15.60
2018-07-06T03:07:50.845Z,15.60
2018-07-06T03:10:30.573Z,15.60
2018-07-06T03:13:10.137Z,15.60
2018-07-06T03:15:49.713Z,15.60
2018-07-06T03:18:29.304Z,15.70
2018-07-06T03:21:08.953Z,15.70
2018-07-06T03:23:48.643Z,15.70
2018-07-06T03:26:28.455Z,15.70
2018-07-06T03:29:08.278Z,15.70
2018-07-06T03:31:47.886Z,15.80
2018-07-06T03:34:27.482Z,15.80
2018-07-06T03:37:07.252Z,15.80
2018-07-06T03:39:46.881Z,15.80
2018-07-06T03:42:26.562Z,15.90
2018-07-06T03:45:06.175Z,15.90
2018-07-06T03:47:45.994Z,16.00
2018-07-06T03:50:25.729Z,16.00
2018-07-06T03:53:05.292Z,16.00
2018-07-06T03:55:44.906Z,16.00
2018-07-06T03:58:24.505Z,16.00
2018-07-06T04:01:04.307Z,16.10
2018-07-06T04:03:43.902Z,16.00
2018-07-06T04:06:23.439Z,16.10
2018-07-06T04:09:03.192Z,16.10
2018-07-06T04:11:42.868Z,16.10
2018-07-06T04:14:22.565Z,16.10
2018-07-06T04:17:02.311Z,16.10
2018-07-06T04:19:42.201Z,16.10
2018-07-06T04:22:21.794Z,16.10
2018-07-06T04:25:01.432Z,16.20
2018-07-06T04:27:41.149Z,16.20
2018-07-06T04:30:20.777Z,16.20
2018-07-06T04:33:00.237Z,16.10
2018-07-06T04:35:39.930Z,16.20
2018-07-06T04:38:19.598Z,16.20
2018-07-06T04:40:59.081Z,16.20
2018-07-06T04:43:38.799Z,16.20
2018-07-06T04:46:18.506Z,16.20
2018-07-06T04:48:58.205Z,16.20
2018-07-06T04:54:11.318Z,16.20
2018-07-06T04:56:51.222Z,16.30
2018-07-06T04:59:30.958Z,16.30
2018-07-06T05:02:10.611Z,16.30
2018-07-06T05:04:50.098Z,16.30
2018-07-06T05:07:29.727Z,16.30
2018-07-06T05:10:09.481Z,16.30
2018-07-06T05:12:49.130Z,16.30
2018-07-06T05:15:28.806Z,16.30
2018-07-06T05:18:08.329Z,16.20
2018-07-06T05:20:48.022Z,16.20
2018-07-06T05:23:27.662Z,16.30
2018-07-06T05:26:07.354Z,16.30
2018-07-06T05:31:20.776Z,16.40
2018-07-06T05:34:00.342Z,16.40
2018-07-06T05:36:40.090Z,16.40
2018-07-06T05:39:19.730Z,16.40
2018-07-06T05:41:59.449Z,16.40
2018-07-06T05:44:39.061Z,16.40
2018-07-06T05:47:18.686Z,16.50
2018-07-06T05:49:58.330Z,16.50
2018-07-06T05:52:38.190Z,16.50
2018-07-06T05:55:17.725Z,16.50
2018-07-06T05:57:57.347Z,16.60
2018-07-06T06:00:36.961Z,16.60
2018-07-06T06:03:16.693Z,16.70
2018-07-06T06:05:56.438Z,16.70
2018-07-06T06:08:23.744Z,16.80
2018-07-06T06:10:52.054Z,16.80
2018-07-06T06:13:20.310Z,16.90
2018-07-06T06:18:17.449Z,17.00
2018-07-06T06:20:45.710Z,17.00
2018-07-06T06:23:13.973Z,17.00
2018-07-06T06:25:42.226Z,17.00
2018-07-06T06:28:10.568Z,17.00
2018-07-06T06:30:38.835Z,17.00
2018-07-06T06:33:07.190Z,17.00
2018-07-06T06:35:35.413Z,17.00
2018-07-06T06:38:03.698Z,17.00
2018-07-06T06:40:31.973Z,17.10
2018-07-06T06:43:00.235Z,17.00
2018-07-06T06:45:28.535Z,16.90
2018-07-06T06:47:56.815Z,16.90
2018-07-06T06:50:25.099Z,16.90
2018-07-06T06:52:53.351Z,16.90
2018-07-06T06:55:25.426Z,16.90
2018-07-06T06:57:53.682Z,16.80
2018-07-06T07:00:21.974Z,16.90
2018-07-06T07:02:50.231Z,16.80
2018-07-06T07:05:18.494Z,16.80
2018-07-06T07:07:46.884Z,16.80
2018-07-06T07:10:15.114Z,16.80
2018-07-06T07:12:43.378Z,16.90
2018-07-06T07:15:11.711Z,16.90
2018-07-06T07:17:39.945Z,17.00
2018-07-06T07:20:08.322Z,17.10
2018-07-06T07:22:36.604Z,17.20
2018-07-06T07:25:04.890Z,17.20
2018-07-06T07:30:01.302Z,17.40
2018-07-06T07:32:29.603Z,17.40
2018-07-06T07:34:57.905Z,17.30
2018-07-06T07:37:26.305Z,17.40
2018-07-06T07:39:54.643Z,17.40
2018-07-06T07:42:22.931Z,17.40
2018-07-06T07:44:51.235Z,17.50
2018-07-06T07:47:19.550Z,17.60
2018-07-06T07:49:47.853Z,17.80
2018-07-06T07:52:27.523Z,17.90
2018-07-06T07:54:56.237Z,18.00
2018-07-06T07:57:24.790Z,18.00
2018-07-06T07:59:54.296Z,18.10
2018-07-06T08:02:22.566Z,18.20
2018-07-06T08:04:51.666Z,18.20
2018-07-06T08:07:19.947Z,18.20
2018-07-06T08:09:48.486Z,18.30
2018-07-06T08:12:17.007Z,18.30
2018-07-06T08:14:45.259Z,18.40
2018-07-06T08:17:13.538Z,18.40
2018-07-06T08:19:41.786Z,18.50
2018-07-06T08:22:10.145Z,18.50
2018-07-06T08:24:38.461Z,18.40
2018-07-06T08:27:08.267Z,18.30
2018-07-06T08:29:36.525Z,18.40
2018-07-06T08:32:05.162Z,18.50
2018-07-06T08:34:44.781Z,18.70
2018-07-06T08:37:49.134Z,18.80
2018-07-06T08:40:17.834Z,19.00
2018-07-06T08:42:48.514Z,19.10
2018-07-06T08:47:45.286Z,19.40
2018-07-06T08:50:13.599Z,19.40
2018-07-06T08:52:43.121Z,19.30
2018-07-06T08:55:11.426Z,19.30
2018-07-06T08:57:40.737Z,19.10
2018-07-06T09:00:09.896Z,19.10
2018-07-06T09:02:38.217Z,19.10
2018-07-06T09:05:07.078Z,19.20
2018-07-06T09:07:35.448Z,19.20
2018-07-06T09:10:03.989Z,19.10
2018-07-06T09:12:32.382Z,19.20
2018-07-06T09:15:01.275Z,19.30
2018-07-06T09:17:29.591Z,19.50
2018-07-06T09:19:58.911Z,19.70
2018-07-06T09:22:26.990Z,19.90
2018-07-06T09:24:56.577Z,20.10
2018-07-06T09:27:24.897Z,20.30
2018-07-06T09:29:53.465Z,20.30
2018-07-06T09:32:21.634Z,20.30
2018-07-06T09:34:49.993Z,20.20
2018-07-06T09:37:18.285Z,20.00
2018-07-06T09:39:47.213Z,20.10
2018-07-06T09:42:16.047Z,20.20
2018-07-06T09:44:44.323Z,20.20
2018-07-06T09:47:13.544Z,20.20
2018-07-06T09:49:41.853Z,20.20
2018-07-06T09:52:10.242Z,20.10
2018-07-06T09:54:38.597Z,19.90
2018-07-06T09:57:07.386Z,20.10
2018-07-06T09:59:35.665Z,20.20
2018-07-06T10:02:04.098Z,20.30
2018-07-06T10:07:00.684Z,20.70
2018-07-06T10:09:29.513Z,20.70
2018-07-06T10:11:59.097Z,20.70
2018-07-06T10:14:27.380Z,20.80
2018-07-06T10:16:55.645Z,20.90
2018-07-06T10:19:23.993Z,21.00
2018-07-06T10:21:52.303Z,21.10
2018-07-06T10:24:20.576Z,20.90
2018-07-06T10:26:48.845Z,20.80
2018-07-06T10:29:29.325Z,20.70
2018-07-06T10:32:26.553Z,20.70
2018-07-06T10:34:55.046Z,20.70
2018-07-06T10:37:23.620Z,20.90
2018-07-06T10:39:52.771Z,21.40
2018-07-06T10:42:21.051Z,22.00
2018-07-06T10:44:49.547Z,22.30
2018-07-06T10:47:18.050Z,22.30
2018-07-06T10:49:46.525Z,22.40
2018-07-06T10:52:15.470Z,22.50
2018-07-06T10:54:44.370Z,22.70
2018-07-06T10:57:13.183Z,22.70
2018-07-06T10:59:41.476Z,22.40
2018-07-06T11:02:09.809Z,22.50
2018-07-06T11:04:38.521Z,22.50
2018-07-06T11:09:34.845Z,22.00
2018-07-06T11:12:04.155Z,22.00
2018-07-06T11:14:32.461Z,22.20
2018-07-06T11:17:00.749Z,22.40
2018-07-06T11:19:28.996Z,22.50
2018-07-06T11:21:57.298Z,22.50
2018-07-06T11:24:25.614Z,22.30
2018-07-06T11:26:53.942Z,22.40
2018-07-06T11:29:23.203Z,22.50
2018-07-06T11:31:51.521Z,22.70
2018-07-06T11:34:19.808Z,23.20
2018-07-06T11:36:48.097Z,24.00
2018-07-06T11:39:16.363Z,24.50
2018-07-06T11:41:44.673Z,24.70
2018-07-06T11:44:12.955Z,24.40
2018-07-06T11:46:41.276Z,24.50
2018-07-06T11:49:09.578Z,24.20
2018-07-06T11:51:37.858Z,24.10
2018-07-06T11:54:06.158Z,24.10
2018-07-06T11:56:34.489Z,23.90
2018-07-06T11:59:02.787Z,23.40
2018-07-06T12:01:31.075Z,23.20
2018-07-06T12:03:59.444Z,23.50
2018-07-06T12:06:27.674Z,23.90
2018-07-06T12:11:23.993Z,23.80
2018-07-06T12:13:52.270Z,24.00
2018-07-06T12:16:20.546Z,24.40
2018-07-06T12:18:48.822Z,24.40
2018-07-06T12:21:17.102Z,24.70
2018-07-06T12:26:13.421Z,25.20
2018-07-06T12:28:41.742Z,25.40
2018-07-06T12:31:10.027Z,25.30
2018-07-06T12:33:38.309Z,25.50
2018-07-06T12:36:06.602Z,25.70
2018-07-06T12:38:34.897Z,25.90
2018-07-06T12:41:03.146Z,25.20
2018-07-06T12:43:31.442Z,24.70
2018-07-06T12:45:59.701Z,24.90
2018-07-06T12:48:27.985Z,25.10
2018-07-06T12:50:56.269Z,25.00
2018-07-06T12:53:24.590Z,24.70
2018-07-06T12:55:52.849Z,24.60
2018-07-06T12:58:21.173Z,24.40
2018-07-06T13:00:49.429Z,24.50
2018-07-06T13:03:17.758Z,24.40
2018-07-06T13:05:46.026Z,24.30
2018-07-06T13:08:14.341Z,24.80
2018-07-06T13:10:42.696Z,25.10
2018-07-06T13:13:10.985Z,25.40
2018-07-06T13:15:39.315Z,25.90
2018-07-06T13:18:07.618Z,26.10
2018-07-06T13:20:35.949Z,26.40
2018-07-06T13:23:04.211Z,26.10
2018-07-06T13:25:32.511Z,26.00
2018-07-06T13:28:01.066Z,26.20
2018-07-06T13:30:29.405Z,26.40
2018-07-06T13:32:57.694Z,26.30
2018-07-06T13:35:26.002Z,26.40
2018-07-06T13:37:54.637Z,26.70
2018-07-06T13:40:22.933Z,26.50
2018-07-06T13:42:51.439Z,26.00
2018-07-06T13:45:19.821Z,26.10
2018-07-06T13:47:48.151Z,26.30
2018-07-06T13:50:16.637Z,26.30
2018-07-06T13:52:45.057Z,26.30
2018-07-06T13:55:13.355Z,26.40
2018-07-06T13:57:41.675Z,26.40
2018-07-06T14:00:09.970Z,26.10
2018-07-06T14:02:38.275Z,25.70
2018-07-06T14:05:06.586Z,25.70
2018-07-06T14:07:34.899Z,26.00
2018-07-06T14:10:03.197Z,25.70
2018-07-06T14:12:31.470Z,26.20
2018-07-06T14:14:59.814Z,26.40
2018-07-06T14:17:28.170Z,26.40
2018-07-06T14:19:56.441Z,26.10
2018-07-06T14:22:24.726Z,26.40
2018-07-06T14:24:53.053Z,26.00
2018-07-06T14:27:21.370Z,26.40
2018-07-06T14:29:49.658Z,26.60
2018-07-06T14:32:17.981Z,26.10
2018-07-06T14:34:47.438Z,25.90
2018-07-06T14:37:15.746Z,26.20
2018-07-06T14:39:44.014Z,26.40
2018-07-06T14:42:12.331Z,26.10
2018-07-06T14:44:40.602Z,26.30
2018-07-06T14:49:37.383Z,26.10
2018-07-06T14:52:06.099Z,25.80
2018-07-06T14:54:34.369Z,26.10
2018-07-06T14:57:02.669Z,26.20
2018-07-06T15:01:59.030Z,25.60
2018-07-06T15:04:27.296Z,25.40
2018-07-06T15:06:55.718Z,25.30
2018-07-06T15:09:23.949Z,25.20
2018-07-06T15:11:52.410Z,25.20
2018-07-06T15:14:21.745Z,25.20
2018-07-06T15:16:50.035Z,25.40
2018-07-06T15:19:18.323Z,25.80
2018-07-06T15:21:46.638Z,26.00
2018-07-06T15:24:14.945Z,25.90
2018-07-06T15:26:43.270Z,25.70
2018-07-06T15:29:11.585Z,25.40
2018-07-06T15:31:39.911Z,25.20
2018-07-06T15:34:08.222Z,25.50
2018-07-06T15:36:36.534Z,25.40
2018-07-06T15:39:05.348Z,25.30
2018-07-06T15:41:33.648Z,25.20
2018-07-06T15:44:01.949Z,24.90
2018-07-06T15:46:30.278Z,24.80
2018-07-06T15:48:59.657Z,25.10
2018-07-06T15:51:27.942Z,25.70
2018-07-06T15:53:56.282Z,26.20
2018-07-06T15:58:52.894Z,26.60
2018-07-06T16:01:21.192Z,26.60
2018-07-06T16:03:49.486Z,26.50
2018-07-06T16:06:17.778Z,26.30
2018-07-06T16:08:46.117Z,26.20
2018-07-06T16:11:14.402Z,25.80
2018-07-06T16:13:42.714Z,25.50
2018-07-06T16:16:10.981Z,25.90
2018-07-06T16:18:39.294Z,26.20
2018-07-06T16:21:07.586Z,26.30
2018-07-06T16:23:35.876Z,26.30
2018-07-06T16:26:04.189Z,26.30
2018-07-06T16:28:32.479Z,26.70
2018-07-06T16:31:00.835Z,26.90
2018-07-06T16:33:29.153Z,27.10
2018-07-06T16:35:57.883Z,26.80
2018-07-06T16:38:26.209Z,26.80
2018-07-06T16:40:54.578Z,26.50
2018-07-06T16:43:22.921Z,26.20
2018-07-06T16:45:51.214Z,26.10
2018-07-06T16:48:19.511Z,26.00
2018-07-06T16:50:47.798Z,25.80
2018-07-06T16:53:16.138Z,25.90
2018-07-06T16:55:44.446Z,26.10
2018-07-06T16:58:12.742Z,26.10
2018-07-06T17:00:41.065Z,26.10
2018-07-06T17:03:09.342Z,25.80
2018-07-06T17:05:37.656Z,25.80
2018-07-06T17:08:05.970Z,25.70
2018-07-06T17:13:02.371Z,25.80
2018-07-06T17:15:30.958Z,25.70
2018-07-06T17:17:59.223Z,25.60
2018-07-06T17:20:27.845Z,25.50
2018-07-06T17:22:56.097Z,25.60
2018-07-06T17:25:24.373Z,25.60
2018-07-06T17:27:52.721Z,25.60
2018-07-06T17:30:20.968Z,25.50
2018-07-06T17:32:49.285Z,25.40
2018-07-06T17:35:17.628Z,25.20
2018-07-06T17:37:46.458Z,25.00
2018-07-06T17:40:14.774Z,24.80
2018-07-06T17:42:43.085Z,24.70
2018-07-06T17:45:11.449Z,24.60
2018-07-06T17:47:39.716Z,24.50
2018-07-06T17:52:36.113Z,24.30
2018-07-06T17:55:04.446Z,24.30
2018-07-06T17:57:32.711Z,24.30
2018-07-06T18:00:01.101Z,24.30
2018-07-06T18:02:29.449Z,24.30
2018-07-06T18:04:57.753Z,24.20
2018-07-06T18:07:26.145Z,24.10
2018-07-06T18:09:54.482Z,23.90
2018-07-06T18:12:22.861Z,23.90
2018-07-06T18:14:51.185Z,23.80
2018-07-06T18:17:19.494Z,23.80
2018-07-06T18:19:47.767Z,23.70
2018-07-06T18:22:16.050Z,23.60
2018-07-06T18:24:44.371Z,23.60
2018-07-06T18:27:12.689Z,23.50
2018-07-06T18:29:41.053Z,23.30
2018-07-06T18:32:09.381Z,23.10
2018-07-06T18:34:37.823Z,23.10
2018-07-06T18:39:34.170Z,22.70
2018-07-06T18:42:02.479Z,22.50
2018-07-06T18:44:30.786Z,22.50
2018-07-06T18:46:59.091Z,22.40
2018-07-06T18:49:27.361Z,22.30
2018-07-06T18:51:55.661Z,22.30
2018-07-06T18:54:23.971Z,22.20
2018-07-06T18:56:52.293Z,22.10
2018-07-06T18:59:20.649Z,22.00
2018-07-06T19:01:48.934Z,21.90
2018-07-06T19:04:17.207Z,21.80
2018-07-06T19:06:45.680Z,21.60
2018-07-06T19:11:42.026Z,21.40
2018-07-06T19:14:10.339Z,21.30
2018-07-06T19:19:06.682Z,21.00
2018-07-06T19:21:34.991Z,20.70
2018-07-06T19:24:03.318Z,20.30
2018-07-06T19:26:31.625Z,20.10
2018-07-06T19:28:59.910Z,20.00
2018-07-06T19:31:28.201Z,19.70
2018-07-06T19:33:56.502Z,19.50
2018-07-06T19:36:24.805Z,19.30
2018-07-06T19:38:53.212Z,19.10
2018-07-06T19:41:21.490Z,19.00
2018-07-06T19:43:49.793Z,19.00
2018-07-06T19:46:18.064Z,19.00
2018-07-06T19:48:46.361Z,19.00
2018-07-06T19:51:14.670Z,18.80
2018-07-06T19:53:42.948Z,18.70
2018-07-06T19:56:11.177Z,18.50
2018-07-06T19:58:39.453Z,18.40
2018-07-06T20:01:07.713Z,18.20
2018-07-06T20:03:35.994Z,17.90
2018-07-06T20:06:04.274Z,17.70
2018-07-06T20:08:32.591Z,17.60
2018-07-06T20:11:00.856Z,17.40
2018-07-06T20:13:29.194Z,17.20
2018-07-06T20:15:57.462Z,17.00
2018-07-06T20:18:25.772Z,16.80
2018-07-06T20:20:54.059Z,16.60
2018-07-06T20:23:22.386Z,16.50
2018-07-06T20:25:50.679Z,16.30
2018-07-06T20:28:19.027Z,16.30
2018-07-06T20:30:47.302Z,16.10
2018-07-06T20:33:15.594Z,16.10
2018-07-06T20:35:43.870Z,16.00
2018-07-06T20:38:12.186Z,15.90
2018-07-06T20:40:40.470Z,15.90
2018-07-06T20:43:08.791Z,15.80
2018-07-06T20:45:37.062Z,15.80
2018-07-06T20:48:06.397Z,15.80
2018-07-06T20:50:34.673Z,15.90
2018-07-06T20:53:03.057Z,16.10
2018-07-06T20:55:31.405Z,16.20
2018-07-06T20:57:59.674Z,16.30
2018-07-06T21:00:27.997Z,16.30
2018-07-06T21:02:56.301Z,16.40
2018-07-06T21:05:24.586Z,16.30
2018-07-06T21:07:52.894Z,16.10
2018-07-06T21:10:21.973Z,16.00
2018-07-06T21:12:50.238Z,15.90
2018-07-06T21:15:18.526Z,15.70
